sensor_id;sensor_type;location;lat;lon;timestamp;pressure;altitude;pressure_sealevel;temperature
12061;BMP180;6091;51.432;6.880;2023-11-18T00:00:15;101662.00;;;22.90
12061;BMP180;6091;51.432;6.880;2023-11-18T00:02:44;101662.00;;;22.90
12061;BMP180;6091;51.432;6.880;2023-11-18T00:05:15;101660.00;;;22.90
12061;BMP180;6091;51.432;6.880;2023-11-18T00:07:43;101664.00;;;22.90
12061;BMP180;6091;51.432;6.880;2023-11-18T00:10:11;101662.00;;;22.90
12061;BMP180;6091;51.432;6.880;2023-11-18T00:12:39;101665.00;;;22.90
12061;BMP180;6091;51.432;6.880;2023-11-18T00:15:09;101669.00;;;22.90
12061;BMP180;6091;51.432;6.880;2023-11-18T00:17:40;101665.00;;;22.90
12061;BMP180;6091;51.432;6.880;2023-11-18T00:20:08;101666.00;;;22.90
12061;BMP180;6091;51.432;6.880;2023-11-18T00:22:39;101662.00;;;22.90
12061;BMP180;6091;51.432;6.880;2023-11-18T00:25:09;101657.00;;;22.80
12061;BMP180;6091;51.432;6.880;2023-11-18T00:27:41;101660.00;;;22.80
12061;BMP180;6091;51.432;6.880;2023-11-18T00:30:08;101666.00;;;22.80
12061;BMP180;6091;51.432;6.880;2023-11-18T00:32:38;101666.00;;;22.80
12061;BMP180;6091;51.432;6.880;2023-11-18T00:35:07;101663.00;;;22.80
12061;BMP180;6091;51.432;6.880;2023-11-18T00:37:35;101646.00;;;22.80
12061;BMP180;6091;51.432;6.880;2023-11-18T00:40:02;101655.00;;;22.80
12061;BMP180;6091;51.432;6.880;2023-11-18T00:42:30;101654.00;;;22.80
12061;BMP180;6091;51.432;6.880;2023-11-18T00:44:57;101658.00;;;22.80
12061;BMP180;6091;51.432;6.880;2023-11-18T00:47:25;101648.00;;;22.80
12061;BMP180;6091;51.432;6.880;2023-11-18T00:49:53;101649.00;;;22.80
12061;BMP180;6091;51.432;6.880;2023-11-18T00:52:20;101655.00;;;22.80
12061;BMP180;6091;51.432;6.880;2023-11-18T00:54:47;101650.00;;;22.80
12061;BMP180;6091;51.432;6.880;2023-11-18T00:57:18;101645.00;;;22.80
12061;BMP180;6091;51.432;6.880;2023-11-18T00:59:45;101640.00;;;22.80
12061;BMP180;6091;51.432;6.880;2023-11-18T01:02:12;101640.00;;;22.80
12061;BMP180;6091;51.432;6.880;2023-11-18T01:04:40;101637.00;;;22.80
12061;BMP180;6091;51.432;6.880;2023-11-18T01:07:07;101631.00;;;22.80
12061;BMP180;6091;51.432;6.880;2023-11-18T01:09:35;101643.00;;;22.70
12061;BMP180;6091;51.432;6.880;2023-11-18T01:12:06;101643.00;;;22.70
12061;BMP180;6091;51.432;6.880;2023-11-18T01:14:38;101639.00;;;22.70
12061;BMP180;6091;51.432;6.880;2023-11-18T01:17:06;101642.00;;;22.70
12061;BMP180;6091;51.432;6.880;2023-11-18T01:19:34;101650.00;;;22.70
12061;BMP180;6091;51.432;6.880;2023-11-18T01:22:01;101649.00;;;22.70
12061;BMP180;6091;51.432;6.880;2023-11-18T01:24:33;101648.00;;;22.70
12061;BMP180;6091;51.432;6.880;2023-11-18T01:27:01;101654.00;;;22.70
12061;BMP180;6091;51.432;6.880;2023-11-18T01:29:28;101666.00;;;22.70
12061;BMP180;6091;51.432;6.880;2023-11-18T01:31:55;101665.00;;;22.70
12061;BMP180;6091;51.432;6.880;2023-11-18T01:34:23;101673.00;;;22.70
12061;BMP180;6091;51.432;6.880;2023-11-18T01:36:50;101688.00;;;22.70
12061;BMP180;6091;51.432;6.880;2023-11-18T01:39:18;101674.00;;;22.70
12061;BMP180;6091;51.432;6.880;2023-11-18T01:41:45;101677.00;;;22.70
12061;BMP180;6091;51.432;6.880;2023-11-18T01:44:13;101675.00;;;22.60
12061;BMP180;6091;51.432;6.880;2023-11-18T01:46:45;101676.00;;;22.60
12061;BMP180;6091;51.432;6.880;2023-11-18T01:49:13;101680.00;;;22.60
12061;BMP180;6091;51.432;6.880;2023-11-18T01:51:46;101676.00;;;22.60
12061;BMP180;6091;51.432;6.880;2023-11-18T01:54:16;101662.00;;;22.60
12061;BMP180;6091;51.432;6.880;2023-11-18T01:56:49;101674.00;;;22.60
12061;BMP180;6091;51.432;6.880;2023-11-18T01:59:17;101670.00;;;22.60
12061;BMP180;6091;51.432;6.880;2023-11-18T02:01:51;101662.00;;;22.60
12061;BMP180;6091;51.432;6.880;2023-11-18T02:04:21;101660.00;;;22.60
12061;BMP180;6091;51.432;6.880;2023-11-18T02:06:49;101664.00;;;22.60
12061;BMP180;6091;51.432;6.880;2023-11-18T02:09:19;101662.00;;;22.60
12061;BMP180;6091;51.432;6.880;2023-11-18T02:12:18;101661.00;;;22.60
12061;BMP180;6091;51.432;6.880;2023-11-18T02:14:49;101667.00;;;22.60
12061;BMP180;6091;51.432;6.880;2023-11-18T02:17:21;101660.00;;;22.60
12061;BMP180;6091;51.432;6.880;2023-11-18T02:19:57;101663.00;;;22.60
12061;BMP180;6091;51.432;6.880;2023-11-18T02:22:25;101665.00;;;22.50
12061;BMP180;6091;51.432;6.880;2023-11-18T02:24:53;101658.00;;;22.50
12061;BMP180;6091;51.432;6.880;2023-11-18T02:27:20;101650.00;;;22.50
12061;BMP180;6091;51.432;6.880;2023-11-18T02:29:50;101641.00;;;22.50
12061;BMP180;6091;51.432;6.880;2023-11-18T02:32:37;101639.00;;;22.50
12061;BMP180;6091;51.432;6.880;2023-11-18T02:35:28;101639.00;;;22.50
12061;BMP180;6091;51.432;6.880;2023-11-18T02:37:58;101637.00;;;22.50
12061;BMP180;6091;51.432;6.880;2023-11-18T02:40:40;101634.00;;;22.50
12061;BMP180;6091;51.432;6.880;2023-11-18T02:43:11;101633.00;;;22.50
12061;BMP180;6091;51.432;6.880;2023-11-18T02:45:39;101643.00;;;22.50
12061;BMP180;6091;51.432;6.880;2023-11-18T02:48:09;101639.00;;;22.50
12061;BMP180;6091;51.432;6.880;2023-11-18T02:50:36;101645.00;;;22.50
12061;BMP180;6091;51.432;6.880;2023-11-18T02:53:03;101642.00;;;22.50
12061;BMP180;6091;51.432;6.880;2023-11-18T02:55:30;101637.00;;;22.50
12061;BMP180;6091;51.432;6.880;2023-11-18T02:57:58;101643.00;;;22.50
12061;BMP180;6091;51.432;6.880;2023-11-18T03:00:25;101652.00;;;22.50
12061;BMP180;6091;51.432;6.880;2023-11-18T03:02:52;101655.00;;;22.50
12061;BMP180;6091;51.432;6.880;2023-11-18T03:05:20;101647.00;;;22.50
12061;BMP180;6091;51.432;6.880;2023-11-18T03:07:48;101643.00;;;22.50
12061;BMP180;6091;51.432;6.880;2023-11-18T03:10:21;101634.00;;;22.50
12061;BMP180;6091;51.432;6.880;2023-11-18T03:12:50;101630.00;;;22.50
12061;BMP180;6091;51.432;6.880;2023-11-18T03:15:21;101623.00;;;22.50
12061;BMP180;6091;51.432;6.880;2023-11-18T03:17:50;101629.00;;;22.50
12061;BMP180;6091;51.432;6.880;2023-11-18T03:20:20;101613.00;;;22.50
12061;BMP180;6091;51.432;6.880;2023-11-18T03:22:48;101618.00;;;22.50
12061;BMP180;6091;51.432;6.880;2023-11-18T03:25:16;101620.00;;;22.50
12061;BMP180;6091;51.432;6.880;2023-11-18T03:27:44;101608.00;;;22.40
12061;BMP180;6091;51.432;6.880;2023-11-18T03:30:14;101604.00;;;22.40
12061;BMP180;6091;51.432;6.880;2023-11-18T03:32:41;101599.00;;;22.40
12061;BMP180;6091;51.432;6.880;2023-11-18T03:35:08;101602.00;;;22.40
12061;BMP180;6091;51.432;6.880;2023-11-18T03:37:40;101599.00;;;22.40
12061;BMP180;6091;51.432;6.880;2023-11-18T03:40:12;101605.00;;;22.40
12061;BMP180;6091;51.432;6.880;2023-11-18T03:42:41;101607.00;;;22.40
12061;BMP180;6091;51.432;6.880;2023-11-18T03:45:09;101598.00;;;22.40
12061;BMP180;6091;51.432;6.880;2023-11-18T03:47:37;101605.00;;;22.40
12061;BMP180;6091;51.432;6.880;2023-11-18T03:50:05;101612.00;;;22.40
12061;BMP180;6091;51.432;6.880;2023-11-18T03:52:36;101622.00;;;22.40
12061;BMP180;6091;51.432;6.880;2023-11-18T03:55:05;101637.00;;;22.40
12061;BMP180;6091;51.432;6.880;2023-11-18T03:57:33;101633.00;;;22.40
12061;BMP180;6091;51.432;6.880;2023-11-18T04:00:00;101637.00;;;22.40
12061;BMP180;6091;51.432;6.880;2023-11-18T04:02:27;101637.00;;;22.40
12061;BMP180;6091;51.432;6.880;2023-11-18T04:04:56;101631.00;;;22.40
12061;BMP180;6091;51.432;6.880;2023-11-18T04:07:23;101632.00;;;22.40
12061;BMP180;6091;51.432;6.880;2023-11-18T04:09:50;101632.00;;;22.40
12061;BMP180;6091;51.432;6.880;2023-11-18T04:12:17;101634.00;;;22.40
12061;BMP180;6091;51.432;6.880;2023-11-18T04:14:45;101627.00;;;22.40
12061;BMP180;6091;51.432;6.880;2023-11-18T04:17:13;101620.00;;;22.40
12061;BMP180;6091;51.432;6.880;2023-11-18T04:19:40;101627.00;;;22.40
12061;BMP180;6091;51.432;6.880;2023-11-18T04:22:08;101622.00;;;22.40
12061;BMP180;6091;51.432;6.880;2023-11-18T04:24:36;101616.00;;;22.40
12061;BMP180;6091;51.432;6.880;2023-11-18T04:27:03;101612.00;;;22.40
12061;BMP180;6091;51.432;6.880;2023-11-18T04:29:30;101617.00;;;22.40
12061;BMP180;6091;51.432;6.880;2023-11-18T04:31:57;101600.00;;;22.40
12061;BMP180;6091;51.432;6.880;2023-11-18T04:34:26;101594.00;;;22.30
12061;BMP180;6091;51.432;6.880;2023-11-18T04:36:53;101581.00;;;22.30
12061;BMP180;6091;51.432;6.880;2023-11-18T04:39:21;101573.00;;;22.30
12061;BMP180;6091;51.432;6.880;2023-11-18T04:41:49;101567.00;;;22.30
12061;BMP180;6091;51.432;6.880;2023-11-18T04:44:16;101554.00;;;22.30
12061;BMP180;6091;51.432;6.880;2023-11-18T04:46:43;101554.00;;;22.30
12061;BMP180;6091;51.432;6.880;2023-11-18T04:49:12;101552.00;;;22.30
12061;BMP180;6091;51.432;6.880;2023-11-18T04:51:39;101555.00;;;22.30
12061;BMP180;6091;51.432;6.880;2023-11-18T04:54:07;101548.00;;;22.30
12061;BMP180;6091;51.432;6.880;2023-11-18T04:56:35;101548.00;;;22.30
12061;BMP180;6091;51.432;6.880;2023-11-18T04:59:03;101543.00;;;22.30
12061;BMP180;6091;51.432;6.880;2023-11-18T05:01:33;101547.00;;;22.30
12061;BMP180;6091;51.432;6.880;2023-11-18T05:04:01;101526.00;;;22.30
12061;BMP180;6091;51.432;6.880;2023-11-18T05:06:28;101531.00;;;22.30
12061;BMP180;6091;51.432;6.880;2023-11-18T05:08:55;101522.00;;;22.30
12061;BMP180;6091;51.432;6.880;2023-11-18T05:11:22;101519.00;;;22.30
12061;BMP180;6091;51.432;6.880;2023-11-18T05:13:49;101517.00;;;22.30
12061;BMP180;6091;51.432;6.880;2023-11-18T05:16:16;101514.00;;;22.30
12061;BMP180;6091;51.432;6.880;2023-11-18T05:18:44;101510.00;;;22.30
12061;BMP180;6091;51.432;6.880;2023-11-18T05:21:11;101508.00;;;22.30
12061;BMP180;6091;51.432;6.880;2023-11-18T05:23:38;101503.00;;;22.30
12061;BMP180;6091;51.432;6.880;2023-11-18T05:26:06;101501.00;;;22.30
12061;BMP180;6091;51.432;6.880;2023-11-18T05:28:33;101504.00;;;22.20
12061;BMP180;6091;51.432;6.880;2023-11-18T05:31:01;101503.00;;;22.20
12061;BMP180;6091;51.432;6.880;2023-11-18T05:33:32;101498.00;;;22.20
12061;BMP180;6091;51.432;6.880;2023-11-18T05:36:02;101500.00;;;22.20
12061;BMP180;6091;51.432;6.880;2023-11-18T05:38:32;101501.00;;;22.20
12061;BMP180;6091;51.432;6.880;2023-11-18T05:41:02;101506.00;;;22.20
12061;BMP180;6091;51.432;6.880;2023-11-18T05:43:32;101504.00;;;22.20
12061;BMP180;6091;51.432;6.880;2023-11-18T05:46:08;101519.00;;;22.20
12061;BMP180;6091;51.432;6.880;2023-11-18T05:48:45;101517.00;;;22.20
12061;BMP180;6091;51.432;6.880;2023-11-18T05:51:12;101520.00;;;22.20
12061;BMP180;6091;51.432;6.880;2023-11-18T05:53:43;101517.00;;;22.20
12061;BMP180;6091;51.432;6.880;2023-11-18T05:56:15;101509.00;;;22.20
12061;BMP180;6091;51.432;6.880;2023-11-18T05:58:44;101496.00;;;22.20
12061;BMP180;6091;51.432;6.880;2023-11-18T06:01:15;101484.00;;;22.20
12061;BMP180;6091;51.432;6.880;2023-11-18T06:03:44;101490.00;;;22.20
12061;BMP180;6091;51.432;6.880;2023-11-18T06:06:15;101484.00;;;22.20
12061;BMP180;6091;51.432;6.880;2023-11-18T06:08:48;101485.00;;;22.20
12061;BMP180;6091;51.432;6.880;2023-11-18T06:11:16;101491.00;;;22.20
12061;BMP180;6091;51.432;6.880;2023-11-18T06:13:51;101486.00;;;22.20
12061;BMP180;6091;51.432;6.880;2023-11-18T06:16:22;101482.00;;;22.20
12061;BMP180;6091;51.432;6.880;2023-11-18T06:18:55;101475.00;;;22.20
12061;BMP180;6091;51.432;6.880;2023-11-18T06:21:25;101465.00;;;22.20
12061;BMP180;6091;51.432;6.880;2023-11-18T06:23:55;101464.00;;;22.10
12061;BMP180;6091;51.432;6.880;2023-11-18T06:26:23;101470.00;;;22.10
12061;BMP180;6091;51.432;6.880;2023-11-18T06:28:55;101473.00;;;22.10
12061;BMP180;6091;51.432;6.880;2023-11-18T06:31:23;101468.00;;;22.10
12061;BMP180;6091;51.432;6.880;2023-11-18T06:33:51;101475.00;;;22.10
12061;BMP180;6091;51.432;6.880;2023-11-18T06:36:20;101479.00;;;22.10
12061;BMP180;6091;51.432;6.880;2023-11-18T06:38:50;101471.00;;;22.10
12061;BMP180;6091;51.432;6.880;2023-11-18T06:41:22;101466.00;;;22.10
12061;BMP180;6091;51.432;6.880;2023-11-18T06:44:05;101469.00;;;22.10
12061;BMP180;6091;51.432;6.880;2023-11-18T06:46:44;101467.00;;;22.10
12061;BMP180;6091;51.432;6.880;2023-11-18T06:49:11;101466.00;;;22.10
12061;BMP180;6091;51.432;6.880;2023-11-18T06:51:43;101473.00;;;22.10
12061;BMP180;6091;51.432;6.880;2023-11-18T06:54:10;101468.00;;;22.10
12061;BMP180;6091;51.432;6.880;2023-11-18T06:56:40;101474.00;;;22.10
12061;BMP180;6091;51.432;6.880;2023-11-18T06:59:11;101484.00;;;22.10
12061;BMP180;6091;51.432;6.880;2023-11-18T07:01:43;101491.00;;;22.10
12061;BMP180;6091;51.432;6.880;2023-11-18T07:04:12;101487.00;;;22.10
12061;BMP180;6091;51.432;6.880;2023-11-18T07:06:41;101489.00;;;22.10
12061;BMP180;6091;51.432;6.880;2023-11-18T07:09:11;101489.00;;;22.10
12061;BMP180;6091;51.432;6.880;2023-11-18T07:11:48;101491.00;;;22.10
12061;BMP180;6091;51.432;6.880;2023-11-18T07:14:15;101492.00;;;22.10
12061;BMP180;6091;51.432;6.880;2023-11-18T07:16:43;101494.00;;;22.10
12061;BMP180;6091;51.432;6.880;2023-11-18T07:19:11;101493.00;;;22.10
12061;BMP180;6091;51.432;6.880;2023-11-18T07:21:49;101490.00;;;22.10
12061;BMP180;6091;51.432;6.880;2023-11-18T07:24:16;101492.00;;;22.10
12061;BMP180;6091;51.432;6.880;2023-11-18T07:26:47;101483.00;;;22.10
12061;BMP180;6091;51.432;6.880;2023-11-18T07:29:16;101491.00;;;22.10
12061;BMP180;6091;51.432;6.880;2023-11-18T07:31:43;101499.00;;;22.10
12061;BMP180;6091;51.432;6.880;2023-11-18T07:34:12;101503.00;;;22.10
12061;BMP180;6091;51.432;6.880;2023-11-18T07:36:40;101497.00;;;22.10
12061;BMP180;6091;51.432;6.880;2023-11-18T07:39:07;101491.00;;;22.10
12061;BMP180;6091;51.432;6.880;2023-11-18T07:41:43;101478.00;;;22.10
12061;BMP180;6091;51.432;6.880;2023-11-18T07:44:11;101467.00;;;22.10
12061;BMP180;6091;51.432;6.880;2023-11-18T07:46:40;101457.00;;;22.10
12061;BMP180;6091;51.432;6.880;2023-11-18T07:49:10;101458.00;;;22.10
12061;BMP180;6091;51.432;6.880;2023-11-18T07:51:38;101461.00;;;22.10
12061;BMP180;6091;51.432;6.880;2023-11-18T07:54:07;101474.00;;;22.20
12061;BMP180;6091;51.432;6.880;2023-11-18T07:56:38;101458.00;;;22.20
12061;BMP180;6091;51.432;6.880;2023-11-18T07:59:05;101457.00;;;22.30
12061;BMP180;6091;51.432;6.880;2023-11-18T08:01:35;101454.00;;;22.30
12061;BMP180;6091;51.432;6.880;2023-11-18T08:04:02;101449.00;;;22.40
12061;BMP180;6091;51.432;6.880;2023-11-18T08:06:33;101452.00;;;22.50
12061;BMP180;6091;51.432;6.880;2023-11-18T08:09:00;101455.00;;;23.00
12061;BMP180;6091;51.432;6.880;2023-11-18T08:11:27;101459.00;;;22.90
12061;BMP180;6091;51.432;6.880;2023-11-18T08:13:56;101458.00;;;23.30
12061;BMP180;6091;51.432;6.880;2023-11-18T08:16:23;101477.00;;;23.30
12061;BMP180;6091;51.432;6.880;2023-11-18T08:18:51;101472.00;;;23.60
12061;BMP180;6091;51.432;6.880;2023-11-18T08:21:19;101479.00;;;23.60
12061;BMP180;6091;51.432;6.880;2023-11-18T08:23:46;101475.00;;;23.70
12061;BMP180;6091;51.432;6.880;2023-11-18T08:26:14;101478.00;;;23.80
12061;BMP180;6091;51.432;6.880;2023-11-18T08:28:41;101482.00;;;23.90
12061;BMP180;6091;51.432;6.880;2023-11-18T08:31:09;101472.00;;;24.00
12061;BMP180;6091;51.432;6.880;2023-11-18T08:33:36;101468.00;;;24.20
12061;BMP180;6091;51.432;6.880;2023-11-18T08:36:03;101480.00;;;24.30
12061;BMP180;6091;51.432;6.880;2023-11-18T08:38:31;101478.00;;;24.40
12061;BMP180;6091;51.432;6.880;2023-11-18T08:40:58;101478.00;;;24.50
12061;BMP180;6091;51.432;6.880;2023-11-18T08:43:26;101475.00;;;24.60
12061;BMP180;6091;51.432;6.880;2023-11-18T08:45:55;101471.00;;;24.70
12061;BMP180;6091;51.432;6.880;2023-11-18T08:48:23;101473.00;;;24.70
12061;BMP180;6091;51.432;6.880;2023-11-18T08:50:50;101472.00;;;24.80
12061;BMP180;6091;51.432;6.880;2023-11-18T08:53:18;101459.00;;;24.90
12061;BMP180;6091;51.432;6.880;2023-11-18T08:55:50;101460.00;;;25.00
12061;BMP180;6091;51.432;6.880;2023-11-18T08:58:18;101472.00;;;25.10
12061;BMP180;6091;51.432;6.880;2023-11-18T09:00:50;101456.00;;;25.10
12061;BMP180;6091;51.432;6.880;2023-11-18T09:03:31;101454.00;;;25.20
12061;BMP180;6091;51.432;6.880;2023-11-18T09:06:05;101449.00;;;25.30
12061;BMP180;6091;51.432;6.880;2023-11-18T09:08:37;101459.00;;;25.30
12061;BMP180;6091;51.432;6.880;2023-11-18T09:11:14;101448.00;;;25.40
12061;BMP180;6091;51.432;6.880;2023-11-18T09:13:43;101446.00;;;25.50
12061;BMP180;6091;51.432;6.880;2023-11-18T09:16:12;101436.00;;;25.50
12061;BMP180;6091;51.432;6.880;2023-11-18T09:18:42;101433.00;;;25.60
12061;BMP180;6091;51.432;6.880;2023-11-18T09:21:12;101429.00;;;25.60
12061;BMP180;6091;51.432;6.880;2023-11-18T09:23:46;101423.00;;;25.70
12061;BMP180;6091;51.432;6.880;2023-11-18T09:26:17;101427.00;;;25.70
12061;BMP180;6091;51.432;6.880;2023-11-18T09:28:45;101419.00;;;25.80
12061;BMP180;6091;51.432;6.880;2023-11-18T09:31:13;101418.00;;;25.80
12061;BMP180;6091;51.432;6.880;2023-11-18T09:33:41;101421.00;;;25.80
12061;BMP180;6091;51.432;6.880;2023-11-18T09:36:20;101420.00;;;25.90
12061;BMP180;6091;51.432;6.880;2023-11-18T09:38:50;101413.00;;;25.90
12061;BMP180;6091;51.432;6.880;2023-11-18T09:41:17;101416.00;;;26.00
12061;BMP180;6091;51.432;6.880;2023-11-18T09:43:46;101428.00;;;26.00
12061;BMP180;6091;51.432;6.880;2023-11-18T09:46:17;101419.00;;;26.00
12061;BMP180;6091;51.432;6.880;2023-11-18T09:48:51;101430.00;;;26.10
12061;BMP180;6091;51.432;6.880;2023-11-18T09:51:37;101435.00;;;26.10
12061;BMP180;6091;51.432;6.880;2023-11-18T09:54:19;101433.00;;;26.10
12061;BMP180;6091;51.432;6.880;2023-11-18T10:00:10;101410.00;;;26.20
12061;BMP180;6091;51.432;6.880;2023-11-18T10:02:49;101413.00;;;26.20
12061;BMP180;6091;51.432;6.880;2023-11-18T10:05:24;101412.00;;;26.30
12061;BMP180;6091;51.432;6.880;2023-11-18T10:07:54;101414.00;;;26.30
12061;BMP180;6091;51.432;6.880;2023-11-18T10:10:22;101403.00;;;26.30
12061;BMP180;6091;51.432;6.880;2023-11-18T10:12:51;101400.00;;;26.40
12061;BMP180;6091;51.432;6.880;2023-11-18T10:15:25;101398.00;;;26.40
12061;BMP180;6091;51.432;6.880;2023-11-18T10:17:54;101394.00;;;26.40
12061;BMP180;6091;51.432;6.880;2023-11-18T10:20:46;101385.00;;;26.50
12061;BMP180;6091;51.432;6.880;2023-11-18T10:23:15;101373.00;;;26.50
12061;BMP180;6091;51.432;6.880;2023-11-18T10:25:55;101359.00;;;26.50
12061;BMP180;6091;51.432;6.880;2023-11-18T10:30:57;101334.00;;;26.60
12061;BMP180;6091;51.432;6.880;2023-11-18T10:33:25;101344.00;;;26.60
12061;BMP180;6091;51.432;6.880;2023-11-18T10:35:59;101337.00;;;26.70
12061;BMP180;6091;51.432;6.880;2023-11-18T10:38:32;101337.00;;;26.70
12061;BMP180;6091;51.432;6.880;2023-11-18T10:41:05;101330.00;;;26.70
12061;BMP180;6091;51.432;6.880;2023-11-18T10:43:33;101329.00;;;26.70
12061;BMP180;6091;51.432;6.880;2023-11-18T10:46:08;101339.00;;;26.70
12061;BMP180;6091;51.432;6.880;2023-11-18T10:48:49;101336.00;;;26.70
12061;BMP180;6091;51.432;6.880;2023-11-18T10:51:19;101309.00;;;26.60
12061;BMP180;6091;51.432;6.880;2023-11-18T10:53:49;101308.00;;;26.60
12061;BMP180;6091;51.432;6.880;2023-11-18T10:56:27;101306.00;;;26.60
12061;BMP180;6091;51.432;6.880;2023-11-18T10:59:06;101303.00;;;26.50
12061;BMP180;6091;51.432;6.880;2023-11-18T11:01:37;101293.00;;;26.50
12061;BMP180;6091;51.432;6.880;2023-11-18T11:04:12;101293.00;;;26.40
12061;BMP180;6091;51.432;6.880;2023-11-18T11:06:48;101295.00;;;26.40
12061;BMP180;6091;51.432;6.880;2023-11-18T11:09:25;101286.00;;;26.30
12061;BMP180;6091;51.432;6.880;2023-11-18T11:11:59;101266.00;;;26.20
12061;BMP180;6091;51.432;6.880;2023-11-18T11:14:34;101265.00;;;26.20
12061;BMP180;6091;51.432;6.880;2023-11-18T11:17:13;101277.00;;;26.10
12061;BMP180;6091;51.432;6.880;2023-11-18T11:20:00;101279.00;;;26.10
12061;BMP180;6091;51.432;6.880;2023-11-18T11:23:25;101282.00;;;26.00
12061;BMP180;6091;51.432;6.880;2023-11-18T11:26:23;101288.00;;;25.90
12061;BMP180;6091;51.432;6.880;2023-11-18T11:29:48;101288.00;;;25.80
12061;BMP180;6091;51.432;6.880;2023-11-18T11:32:35;101292.00;;;25.80
12061;BMP180;6091;51.432;6.880;2023-11-18T11:35:19;101285.00;;;25.70
12061;BMP180;6091;51.432;6.880;2023-11-18T11:37:52;101283.00;;;25.70
12061;BMP180;6091;51.432;6.880;2023-11-18T11:40:22;101271.00;;;25.70
12061;BMP180;6091;51.432;6.880;2023-11-18T11:42:53;101265.00;;;25.60
12061;BMP180;6091;51.432;6.880;2023-11-18T11:45:26;101261.00;;;25.60
12061;BMP180;6091;51.432;6.880;2023-11-18T11:48:01;101260.00;;;25.60
12061;BMP180;6091;51.432;6.880;2023-11-18T11:51:09;101262.00;;;25.50
12061;BMP180;6091;51.432;6.880;2023-11-18T11:54:09;101259.00;;;25.50
12061;BMP180;6091;51.432;6.880;2023-11-18T11:56:46;101249.00;;;25.50
12061;BMP180;6091;51.432;6.880;2023-11-18T12:00:08;101252.00;;;25.50
12061;BMP180;6091;51.432;6.880;2023-11-18T12:02:14;101262.00;;;25.50
12061;BMP180;6091;51.432;6.880;2023-11-18T12:04:48;101272.00;;;25.50
12061;BMP180;6091;51.432;6.880;2023-11-18T12:07:21;101271.00;;;25.50
12061;BMP180;6091;51.432;6.880;2023-11-18T12:09:50;101271.00;;;25.50
12061;BMP180;6091;51.432;6.880;2023-11-18T12:12:23;101251.00;;;25.60
12061;BMP180;6091;51.432;6.880;2023-11-18T12:14:58;101233.00;;;25.60
12061;BMP180;6091;51.432;6.880;2023-11-18T12:20:40;101208.00;;;25.60
12061;BMP180;6091;51.432;6.880;2023-11-18T12:23:10;101205.00;;;25.60
12061;BMP180;6091;51.432;6.880;2023-11-18T12:25:45;101189.00;;;25.60
12061;BMP180;6091;51.432;6.880;2023-11-18T12:28:16;101188.00;;;25.60
12061;BMP180;6091;51.432;6.880;2023-11-18T12:30:48;101164.00;;;25.60
12061;BMP180;6091;51.432;6.880;2023-11-18T12:33:20;101160.00;;;25.60
12061;BMP180;6091;51.432;6.880;2023-11-18T12:41:40;101159.00;;;25.50
12061;BMP180;6091;51.432;6.880;2023-11-18T12:47:00;101141.00;;;25.50
12061;BMP180;6091;51.432;6.880;2023-11-18T12:49:46;101142.00;;;25.50
12061;BMP180;6091;51.432;6.880;2023-11-18T12:52:33;101125.00;;;25.40
12061;BMP180;6091;51.432;6.880;2023-11-18T12:55:03;101125.00;;;25.40
12061;BMP180;6091;51.432;6.880;2023-11-18T12:57:34;101110.00;;;25.40
12061;BMP180;6091;51.432;6.880;2023-11-18T13:00:06;101096.00;;;25.40
12061;BMP180;6091;51.432;6.880;2023-11-18T13:02:34;101083.00;;;25.40
12061;BMP180;6091;51.432;6.880;2023-11-18T13:05:05;101056.00;;;25.40
12061;BMP180;6091;51.432;6.880;2023-11-18T13:07:37;101060.00;;;25.40
12061;BMP180;6091;51.432;6.880;2023-11-18T13:10:05;101066.00;;;25.40
12061;BMP180;6091;51.432;6.880;2023-11-18T13:12:33;101070.00;;;25.40
12061;BMP180;6091;51.432;6.880;2023-11-18T13:15:01;101057.00;;;25.40
12061;BMP180;6091;51.432;6.880;2023-11-18T13:17:28;101042.00;;;25.40
12061;BMP180;6091;51.432;6.880;2023-11-18T13:19:57;101027.00;;;25.40
12061;BMP180;6091;51.432;6.880;2023-11-18T13:22:42;101012.00;;;25.30
12061;BMP180;6091;51.432;6.880;2023-11-18T13:25:15;100994.00;;;25.30
12061;BMP180;6091;51.432;6.880;2023-11-18T13:27:45;100981.00;;;25.30
12061;BMP180;6091;51.432;6.880;2023-11-18T13:30:13;100987.00;;;25.30
12061;BMP180;6091;51.432;6.880;2023-11-18T13:32:42;100969.00;;;25.30
12061;BMP180;6091;51.432;6.880;2023-11-18T13:35:13;100965.00;;;25.30
12061;BMP180;6091;51.432;6.880;2023-11-18T13:37:50;100973.00;;;25.30
12061;BMP180;6091;51.432;6.880;2023-11-18T13:40:18;100958.00;;;25.30
12061;BMP180;6091;51.432;6.880;2023-11-18T13:42:45;100953.00;;;25.30
12061;BMP180;6091;51.432;6.880;2023-11-18T13:45:15;100944.00;;;25.30
12061;BMP180;6091;51.432;6.880;2023-11-18T13:48:02;100935.00;;;25.20
12061;BMP180;6091;51.432;6.880;2023-11-18T13:50:30;100934.00;;;25.20
12061;BMP180;6091;51.432;6.880;2023-11-18T13:52:57;100937.00;;;25.30
12061;BMP180;6091;51.432;6.880;2023-11-18T13:55:25;100933.00;;;25.30
12061;BMP180;6091;51.432;6.880;2023-11-18T13:57:59;100942.00;;;25.30
12061;BMP180;6091;51.432;6.880;2023-11-18T14:00:27;100932.00;;;25.30
12061;BMP180;6091;51.432;6.880;2023-11-18T14:02:59;100918.00;;;25.30
12061;BMP180;6091;51.432;6.880;2023-11-18T14:05:27;100910.00;;;25.30
12061;BMP180;6091;51.432;6.880;2023-11-18T14:07:55;100902.00;;;25.30
12061;BMP180;6091;51.432;6.880;2023-11-18T14:10:35;100887.00;;;25.30
12061;BMP180;6091;51.432;6.880;2023-11-18T14:13:29;100856.00;;;25.30
12061;BMP180;6091;51.432;6.880;2023-11-18T14:15:58;100855.00;;;25.30
12061;BMP180;6091;51.432;6.880;2023-11-18T14:18:26;100829.00;;;25.40
12061;BMP180;6091;51.432;6.880;2023-11-18T14:20:54;100826.00;;;25.30
12061;BMP180;6091;51.432;6.880;2023-11-18T14:23:22;100833.00;;;25.40
12061;BMP180;6091;51.432;6.880;2023-11-18T14:25:50;100832.00;;;25.40
12061;BMP180;6091;51.432;6.880;2023-11-18T14:28:18;100836.00;;;25.40
12061;BMP180;6091;51.432;6.880;2023-11-18T14:30:46;100853.00;;;25.40
12061;BMP180;6091;51.432;6.880;2023-11-18T14:33:13;100844.00;;;25.30
12061;BMP180;6091;51.432;6.880;2023-11-18T14:35:45;100837.00;;;25.40
12061;BMP180;6091;51.432;6.880;2023-11-18T14:38:13;100848.00;;;25.30
12061;BMP180;6091;51.432;6.880;2023-11-18T14:40:41;100851.00;;;25.30
12061;BMP180;6091;51.432;6.880;2023-11-18T14:43:08;100848.00;;;25.30
12061;BMP180;6091;51.432;6.880;2023-11-18T14:45:36;100836.00;;;25.30
12061;BMP180;6091;51.432;6.880;2023-11-18T14:48:05;100826.00;;;25.20